Time;durP1;ratioP1;P1;durP2;ratioP2;P2;SDS_P1;SDS_P2;PMS_P1;PMS_P2;Temp;Humidity;BMP_temperature;BMP_pressure;BME280_temperature;BME280_humidity;BME280_pressure;Samples;Min_cycle;Max_cycle;Signal;HPM_P1;HPM_P2
2023/10/27 00:01:18;;;;;;;17.65;9.23;;;;;;;10.66;100.00;98606.06;5079843;28;20044;-81
2023/10/27 00:03:45;;;;;;;15.93;9.10;;;;;;;10.62;100.00;98603.06;5079992;28;20597;-82
2023/10/27 00:06:11;;;;;;;22.70;9.95;;;;;;;10.54;100.00;98605.06;5069870;28;20068;-81
2023/10/27 00:08:38;;;;;;;16.15;8.57;;;;;;;10.61;100.00;98608.47;5060480;28;20128;-81
2023/10/27 00:11:05;;;;;;;20.38;8.93;;;;;;;10.69;100.00;98607.47;5072876;28;20583;-81
2023/10/27 00:13:32;;;;;;;16.98;8.50;;;;;;;10.57;100.00;98604.66;5073753;28;20053;-81
2023/10/27 00:16:00;;;;;;;18.02;8.70;;;;;;;10.38;100.00;98598.50;5070383;28;20048;-80
2023/10/27 00:18:27;;;;;;;24.25;9.30;;;;;;;10.33;100.00;98592.25;5059511;28;20049;-81
2023/10/27 00:20:53;;;;;;;20.55;9.18;;;;;;;10.46;100.00;98597.44;5059043;28;20439;-79
2023/10/27 00:23:22;;;;;;;15.70;8.50;;;;;;;10.43;100.00;98596.03;5061647;28;20079;-81
2023/10/27 00:25:48;;;;;;;18.98;8.43;;;;;;;10.44;100.00;98591.63;5067011;28;20056;-82
2023/10/27 00:28:15;;;;;;;23.63;9.52;;;;;;;10.43;100.00;98598.66;5070098;28;20136;-80
2023/10/27 00:30:42;;;;;;;16.65;9.07;;;;;;;10.40;100.00;98603.53;5072174;28;20174;-81
2023/10/27 00:33:10;;;;;;;22.15;8.95;;;;;;;10.32;100.00;98601.91;5071026;28;20083;-80
2023/10/27 00:35:39;;;;;;;16.95;9.57;;;;;;;10.41;100.00;98608.50;5071632;28;20084;-81
2023/10/27 00:38:08;;;;;;;21.30;8.98;;;;;;;10.35;100.00;98601.50;5068250;28;20067;-83
2023/10/27 00:40:35;;;;;;;21.95;8.68;;;;;;;10.41;100.00;98599.88;5069292;28;20083;-81
2023/10/27 00:43:04;;;;;;;22.73;8.50;;;;;;;10.43;100.00;98593.44;5060270;28;20109;-81
2023/10/27 00:45:31;;;;;;;19.08;9.30;;;;;;;10.43;100.00;98598.66;5079742;28;20055;-81
2023/10/27 00:47:58;;;;;;;22.00;9.23;;;;;;;10.40;100.00;98593.06;5074112;28;20077;-81
2023/10/27 00:50:27;;;;;;;22.05;8.60;;;;;;;10.47;100.00;98594.63;5071927;28;20138;-81
2023/10/27 00:52:54;;;;;;;19.67;7.88;;;;;;;10.53;100.00;98606.09;5059530;28;20049;-82
2023/10/27 00:55:20;;;;;;;17.85;8.05;;;;;;;10.49;100.00;98599.66;5079665;28;20049;-82
2023/10/27 00:57:51;;;;;;;18.85;8.18;;;;;;;10.58;100.00;98596.63;5079154;28;20079;-82
2023/10/27 01:00:18;;;;;;;16.25;7.70;;;;;;;10.60;100.00;98588.56;5081192;28;20572;-80
2023/10/27 01:02:45;;;;;;;15.27;7.53;;;;;;;10.60;100.00;98596.41;5080504;28;20155;-80
2023/10/27 01:05:11;;;;;;;17.60;7.82;;;;;;;10.57;100.00;98595.00;5079247;28;20060;-81
2023/10/27 01:07:40;;;;;;;13.25;7.13;;;;;;;10.61;100.00;98590.97;5078866;28;20131;-81
2023/10/27 01:10:08;;;;;;;16.88;7.32;;;;;;;10.65;100.00;98591.38;5078995;28;20048;-81
2023/10/27 01:12:35;;;;;;;15.48;7.30;;;;;;;10.64;100.00;98587.97;5074315;28;20128;-83
2023/10/27 01:15:01;;;;;;;19.08;7.53;;;;;;;10.68;100.00;98596.19;5070521;28;20052;-83
2023/10/27 01:17:28;;;;;;;16.70;7.32;;;;;;;10.67;100.00;98585.94;5079398;28;20463;-82
2023/10/27 01:19:54;;;;;;;14.68;7.47;;;;;;;10.75;100.00;98586.53;5062847;28;20127;-83
2023/10/27 01:22:21;;;;;;;17.55;7.35;;;;;;;10.76;100.00;98595.97;5062612;28;20048;-83
2023/10/27 01:24:50;;;;;;;21.65;8.52;;;;;;;10.75;100.00;98593.56;5064167;28;20545;-83
2023/10/27 01:27:17;;;;;;;17.13;7.78;;;;;;;10.60;100.00;98589.38;5059538;28;20076;-82
2023/10/27 01:29:43;;;;;;;16.55;7.88;;;;;;;10.63;100.00;98594.19;5058220;28;20060;-83
2023/10/27 01:32:10;;;;;;;22.00;8.68;;;;;;;10.64;100.00;98595.00;5058338;28;20072;-82
2023/10/27 01:34:37;;;;;;;15.25;8.38;;;;;;;10.61;100.00;98577.09;5058651;28;20243;-82
2023/10/27 01:37:11;;;;;;;19.13;8.55;;;;;;;10.66;100.00;98582.53;5077783;23;20135;-81
2023/10/27 01:39:38;;;;;;;22.00;8.50;;;;;;;10.55;100.00;98576.09;5045824;28;20037;-80
2023/10/27 01:42:06;;;;;;;22.23;8.65;;;;;;;10.62;100.00;98584.75;5053294;28;20041;-79
2023/10/27 01:44:32;;;;;;;20.10;8.57;;;;;;;10.74;100.00;98584.09;5052979;28;20087;-80
2023/10/27 01:47:00;;;;;;;20.38;7.93;;;;;;;10.82;100.00;98579.44;5056145;28;20049;-80
2023/10/27 01:49:27;;;;;;;17.48;7.30;;;;;;;10.83;100.00;98583.69;5068281;28;20048;-80
2023/10/27 01:51:53;;;;;;;19.42;9.30;;;;;;;10.58;100.00;98577.50;5066005;28;20140;-81
2023/10/27 01:54:20;;;;;;;18.00;8.15;;;;;;;10.54;100.00;98576.31;5064158;28;20060;-79
2023/10/27 01:56:47;;;;;;;24.17;8.50;;;;;;;10.54;100.00;98578.94;5069408;28;20529;-79
2023/10/27 01:59:15;;;;;;;15.70;7.80;;;;;;;10.51;100.00;98579.34;5071458;28;20104;-79
2023/10/27 02:01:41;;;;;;;22.42;8.50;;;;;;;10.43;100.00;98562.06;5073151;28;20135;-79
2023/10/27 02:04:08;;;;;;;21.67;8.40;;;;;;;10.44;100.00;98557.63;5069524;28;20108;-79
2023/10/27 02:06:34;;;;;;;19.58;8.90;;;;;;;10.35;100.00;98554.47;5064288;28;20094;-79
2023/10/27 02:09:01;;;;;;;17.00;8.55;;;;;;;10.35;100.00;98556.28;5069352;28;20083;-80
2023/10/27 02:11:27;;;;;;;20.88;7.78;;;;;;;10.41;100.00;98548.38;5072771;28;20082;-80
2023/10/27 02:13:54;;;;;;;18.15;8.80;;;;;;;10.44;100.00;98547.97;5079044;28;20048;-79
2023/10/27 02:16:22;;;;;;;21.95;7.53;;;;;;;10.40;100.00;98544.16;5074323;28;20057;-80
2023/10/27 02:18:51;;;;;;;22.45;7.40;;;;;;;10.37;100.00;98541.19;5074800;28;20041;-80
2023/10/27 02:21:17;;;;;;;19.85;8.07;;;;;;;10.52;100.00;98542.53;5065902;28;20487;-80
2023/10/27 02:23:44;;;;;;;15.43;6.57;;;;;;;10.66;100.00;98545.91;5075251;28;20140;-80
2023/10/27 02:26:10;;;;;;;18.48;7.80;;;;;;;10.57;100.00;98532.25;5070126;28;20195;-79
2023/10/27 02:28:37;;;;;;;14.10;6.70;;;;;;;10.45;100.00;98543.53;5070275;28;20100;-79
2023/10/27 02:31:05;;;;;;;12.68;6.50;;;;;;;10.60;100.00;98533.66;5067847;28;20079;-80
2023/10/27 02:33:33;;;;;;;19.42;7.15;;;;;;;10.57;100.00;98524.41;5072521;28;20130;-78
2023/10/27 02:35:59;;;;;;;15.40;6.50;;;;;;;10.51;100.00;98527.84;5071975;28;20112;-79
2023/10/27 02:38:26;;;;;;;17.02;6.60;;;;;;;10.43;100.00;98522.03;5068913;28;20080;-79
2023/10/27 02:40:53;;;;;;;18.65;6.55;;;;;;;10.52;100.00;98510.34;5069698;28;20072;-81
2023/10/27 02:43:19;;;;;;;14.07;6.32;;;;;;;10.45;100.00;98501.72;5067134;28;20506;-80
2023/10/27 02:45:46;;;;;;;19.80;6.13;;;;;;;10.55;100.00;98502.88;5074489;28;20076;-80
2023/10/27 02:48:13;;;;;;;15.93;6.55;;;;;;;10.49;100.00;98502.91;5073523;28;20059;-79
2023/10/27 02:50:41;;;;;;;17.70;6.40;;;;;;;10.50;100.00;98497.47;5078520;28;20086;-81
2023/10/27 02:53:09;;;;;;;12.95;5.90;;;;;;;10.59;100.00;98503.28;5078987;28;20136;-80
2023/10/27 02:55:36;;;;;;;14.35;5.63;;;;;;;10.49;100.00;98493.25;5079848;28;20063;-80
2023/10/27 02:58:03;;;;;;;15.60;5.63;;;;;;;10.46;100.00;98493.66;5063565;28;20061;-80
2023/10/27 03:00:30;;;;;;;14.73;6.00;;;;;;;10.60;100.00;98491.81;5060953;28;20095;-81
2023/10/27 03:02:56;;;;;;;16.38;6.32;;;;;;;10.53;100.00;98489.22;5079579;28;20209;-80
2023/10/27 03:05:23;;;;;;;12.77;5.82;;;;;;;10.54;100.00;98495.25;5081074;28;20131;-80
2023/10/27 03:07:51;;;;;;;15.85;6.10;;;;;;;10.56;100.00;98478.34;5071733;28;20053;-79
2023/10/27 03:10:17;;;;;;;20.15;5.88;;;;;;;10.61;100.00;98483.75;5068841;28;20127;-78
2023/10/27 03:12:44;;;;;;;14.05;5.78;;;;;;;10.55;100.00;98481.16;5075563;28;20049;-77
2023/10/27 03:15:11;;;;;;;16.73;6.07;;;;;;;10.53;100.00;98483.19;5059471;28;20140;-79
2023/10/27 03:17:37;;;;;;;21.70;7.80;;;;;;;10.48;100.00;98481.19;5061816;28;20076;-80
2023/10/27 03:20:05;;;;;;;11.98;5.65;;;;;;;10.53;100.00;98483.19;5078403;28;20086;-81
2023/10/27 03:22:32;;;;;;;14.50;6.25;;;;;;;10.46;100.00;98480.59;5073949;28;20491;-79
2023/10/27 03:25:00;;;;;;;17.13;5.70;;;;;;;10.52;100.00;98481.56;5079201;28;20114;-80
2023/10/27 03:27:27;;;;;;;11.02;6.10;;;;;;;10.53;100.00;98493.63;5077018;28;20056;-80
2023/10/27 03:29:54;;;;;;;9.57;5.45;;;;;;;10.65;100.00;98489.38;5084496;28;20049;-81
2023/10/27 03:32:22;;;;;;;15.50;6.00;;;;;;;10.71;100.00;98490.34;5082865;28;20132;-80
2023/10/27 03:34:48;;;;;;;14.38;5.57;;;;;;;10.59;100.00;98477.13;5081430;28;20040;-79
2023/10/27 03:37:15;;;;;;;17.30;5.78;;;;;;;10.61;100.00;98482.94;5080933;28;20596;-80
2023/10/27 03:39:42;;;;;;;18.70;6.05;;;;;;;10.55;100.00;98481.16;5080839;28;20128;-80
2023/10/27 03:42:10;;;;;;;17.73;6.57;;;;;;;10.59;100.00;98482.34;5068761;28;20108;-79
2023/10/27 03:44:38;;;;;;;19.08;5.80;;;;;;;10.60;100.00;98484.75;5076714;28;20093;-80
2023/10/27 03:47:05;;;;;;;17.20;5.18;;;;;;;10.58;100.00;98478.13;5061976;28;20053;-79
2023/10/27 03:49:31;;;;;;;13.30;5.38;;;;;;;10.55;100.00;98476.75;5081987;28;20040;-80
2023/10/27 03:51:59;;;;;;;11.95;5.60;;;;;;;10.49;100.00;98469.72;5078673;28;20131;-81
2023/10/27 03:54:25;;;;;;;14.45;5.45;;;;;;;10.59;100.00;98477.13;5066604;28;20383;-80
2023/10/27 03:56:52;;;;;;;18.58;5.82;;;;;;;10.48;100.00;98475.97;5066326;28;20087;-79
2023/10/27 03:59:20;;;;;;;16.55;5.90;;;;;;;10.58;100.00;98480.75;5067951;28;20128;-80
2023/10/27 04:01:46;;;;;;;15.60;5.80;;;;;;;10.40;100.00;98472.81;5076738;28;20107;-80
2023/10/27 04:04:14;;;;;;;22.50;6.90;;;;;;;10.37;100.00;98475.81;5070442;28;20567;-81
2023/10/27 04:06:41;;;;;;;20.15;6.90;;;;;;;10.38;100.00;98474.81;5073058;28;20052;-79
2023/10/27 04:09:08;;;;;;;14.52;6.30;;;;;;;10.40;100.00;98470.97;5066150;28;20053;-81
2023/10/27 04:11:34;;;;;;;19.88;6.53;;;;;;;10.45;100.00;98465.09;5078322;28;20517;-81
2023/10/27 04:14:01;;;;;;;20.52;6.70;;;;;;;10.36;100.00;98463.75;5070310;28;20127;-80
2023/10/27 04:16:32;;;;;;;20.13;7.05;;;;;;;10.28;100.00;98470.81;5059124;28;20099;-82
2023/10/27 04:18:59;;;;;;;22.90;6.97;;;;;;;10.26;100.00;98472.03;5063203;28;20045;-78
2023/10/27 04:21:25;;;;;;;15.85;6.75;;;;;;;10.26;100.00;98458.97;5063594;28;20149;-81
2023/10/27 04:23:52;;;;;;;20.55;7.03;;;;;;;10.28;100.00;98470.03;5065285;28;20517;-81
2023/10/27 04:26:19;;;;;;;20.92;6.90;;;;;;;10.26;100.00;98457.16;5077902;28;20048;-81
2023/10/27 04:28:46;;;;;;;14.15;6.40;;;;;;;10.27;100.00;98466.59;5078904;28;20472;-82
2023/10/27 04:31:16;;;;;;;20.75;7.22;;;;;;;10.34;100.00;98463.16;5077676;28;20111;-82
2023/10/27 04:33:47;;;;;;;17.58;7.57;;;;;;;10.30;100.00;98468.00;5064309;28;20049;-82
2023/10/27 04:36:17;;;;;;;16.23;7.50;;;;;;;10.30;100.00;98465.38;5071607;28;20058;-80
2023/10/27 04:38:44;;;;;;;14.65;7.75;;;;;;;10.40;100.00;98470.19;5073337;28;20048;-80
2023/10/27 04:41:10;;;;;;;15.73;7.57;;;;;;;10.29;100.00;98464.59;5067789;28;20527;-81
2023/10/27 04:43:37;;;;;;;21.95;8.15;;;;;;;10.38;100.00;98474.81;5081799;28;20051;-83
2023/10/27 04:46:04;;;;;;;19.98;7.22;;;;;;;10.50;100.00;98463.47;5081609;28;20544;-82
2023/10/27 04:48:34;;;;;;;20.17;7.25;;;;;;;10.48;100.00;98469.91;5080848;28;20304;-81
2023/10/27 04:51:05;;;;;;;15.25;7.35;;;;;;;10.40;100.00;98467.56;5088307;28;20068;-79
2023/10/27 04:53:32;;;;;;;14.07;7.07;;;;;;;10.45;100.00;98465.91;5080631;28;20317;-79
2023/10/27 04:55:58;;;;;;;17.30;8.13;;;;;;;10.52;100.00;98474.53;5064677;28;20088;-81
2023/10/27 04:58:25;;;;;;;19.27;8.70;;;;;;;10.55;100.00;98470.69;5070381;28;20056;-81
2023/10/27 05:00:58;;;;;;;20.02;8.15;;;;;;;10.58;100.00;98472.91;5074332;28;20124;-85
2023/10/27 05:03:28;;;;;;;17.30;7.75;;;;;;;10.47;100.00;98473.53;5073864;28;20414;-79
2023/10/27 05:05:55;;;;;;;15.52;7.20;;;;;;;10.51;100.00;98470.31;5082135;28;20056;-82
2023/10/27 05:08:23;;;;;;;16.35;7.30;;;;;;;10.60;100.00;98473.50;5081426;28;20052;-81
2023/10/27 05:10:50;;;;;;;21.05;8.95;;;;;;;10.46;100.00;98467.50;5074363;28;20114;-82
2023/10/27 05:13:16;;;;;;;20.10;7.95;;;;;;;10.61;100.00;98469.88;5064824;28;20053;-80
2023/10/27 05:15:53;;;;;;;15.10;7.65;;;;;;;10.52;100.00;98466.69;5082370;28;20045;-82
2023/10/27 05:18:20;;;;;;;15.90;8.40;;;;;;;10.52;100.00;98474.53;5082461;28;20537;-81
2023/10/27 05:20:46;;;;;;;22.52;8.65;;;;;;;10.44;100.00;98473.97;5081282;28;20048;-81
2023/10/27 05:23:16;;;;;;;21.15;8.18;;;;;;;10.50;100.00;98483.59;5081433;28;20055;-84
2023/10/27 05:25:44;;;;;;;19.63;7.82;;;;;;;10.52;100.00;98469.31;5080486;28;20044;-82
2023/10/27 05:28:11;;;;;;;17.23;8.05;;;;;;;10.52;100.00;98481.56;5079124;28;20063;-81
2023/10/27 05:30:43;;;;;;;19.90;8.13;;;;;;;10.43;100.00;98478.38;5075029;28;20082;-82
2023/10/27 05:37:06;;;;;;;18.17;9.02;;;;;;;10.46;100.00;98471.94;5056263;28;20143;-82
2023/10/27 05:39:51;;;;;;;24.48;9.75;;;;;;;10.44;100.00;98473.97;5074751;28;20037;-80
2023/10/27 05:42:23;;;;;;;21.20;9.80;;;;;;;10.44;100.00;98477.38;5068078;28;20055;-80
2023/10/27 05:44:49;;;;;;;26.40;9.98;;;;;;;10.32;100.00;98484.28;5071976;28;20048;-80
2023/10/27 05:47:36;;;;;;;20.02;10.18;;;;;;;10.36;100.00;98476.84;5071027;28;20431;-80
2023/10/27 05:50:06;;;;;;;17.60;9.45;;;;;;;10.29;100.00;98482.09;5072299;28;20049;-80
2023/10/27 05:52:33;;;;;;;25.45;10.80;;;;;;;10.17;100.00;98478.47;5071239;28;20056;-81
2023/10/27 05:55:00;;;;;;;21.45;10.77;;;;;;;10.33;100.00;98498.16;5075805;28;20426;-79
2023/10/27 06:00:33;;;;;;;;;;;;;;;10.40;100.00;98501.56;5046021;28;20060;-81
2023/10/27 06:03:15;;;;;;;18.92;9.52;;;;;;;10.34;100.00;98482.28;5076510;28;19970;-81
2023/10/27 06:05:49;;;;;;;22.45;9.55;;;;;;;10.35;100.00;98485.69;5075000;28;20056;-81
2023/10/27 06:08:16;;;;;;;25.25;9.43;;;;;;;10.36;100.00;98482.06;5055145;28;20080;-81
2023/10/27 06:10:42;;;;;;;17.05;9.55;;;;;;;10.33;100.00;98485.09;5084024;28;20528;-81
2023/10/27 06:13:10;;;;;;;19.67;9.45;;;;;;;10.47;100.00;98489.25;5076465;28;20067;-80
2023/10/27 06:15:37;;;;;;;20.30;9.48;;;;;;;10.34;100.00;98484.88;5070296;28;20052;-81
2023/10/27 06:18:04;;;;;;;20.55;8.73;;;;;;;10.37;100.00;98494.94;5072921;28;20079;-80
2023/10/27 06:20:31;;;;;;;24.98;9.23;;;;;;;10.39;100.00;98492.09;5074532;28;20529;-80
2023/10/27 06:22:57;;;;;;;20.52;8.85;;;;;;;10.42;100.00;98497.69;5075073;28;20118;-79
2023/10/27 06:25:25;;;;;;;16.67;9.07;;;;;;;10.40;100.00;98494.50;5058053;28;20131;-80
2023/10/27 06:27:52;;;;;;;16.90;9.90;;;;;;;10.38;100.00;98493.13;5061356;28;20053;-80
2023/10/27 06:30:21;;;;;;;19.90;9.50;;;;;;;10.44;100.00;98493.06;5078798;28;20131;-81
2023/10/27 06:32:49;;;;;;;16.88;8.55;;;;;;;10.43;100.00;98490.66;5078998;28;20052;-81
2023/10/27 06:35:16;;;;;;;22.13;9.27;;;;;;;10.49;100.00;98492.44;5077332;28;20579;-82
2023/10/27 06:37:43;;;;;;;20.70;9.65;;;;;;;10.52;100.00;98487.59;5070563;28;20115;-81
2023/10/27 06:40:10;;;;;;;25.05;9.57;;;;;;;10.48;100.00;98490.84;5079430;28;20149;-81
2023/10/27 06:42:37;;;;;;;22.95;11.80;;;;;;;10.44;100.00;98495.69;5067219;28;20467;-80
2023/10/27 06:45:04;;;;;;;19.83;9.32;;;;;;;10.46;100.00;98487.63;5059863;28;20132;-82
2023/10/27 06:47:32;;;;;;;21.52;9.70;;;;;;;10.46;100.00;98490.25;5067486;28;20059;-80
2023/10/27 06:50:02;;;;;;;18.58;8.82;;;;;;;10.49;100.00;98493.25;5072483;28;20049;-81
2023/10/27 06:52:29;;;;;;;17.42;8.90;;;;;;;10.51;100.00;98495.66;5063978;28;20133;-82
2023/10/27 06:54:56;;;;;;;19.33;9.55;;;;;;;10.57;100.00;98489.59;5080281;28;20573;-80
2023/10/27 06:57:22;;;;;;;20.60;9.93;;;;;;;10.61;100.00;98501.25;5078469;28;20098;-80
2023/10/27 06:59:49;;;;;;;22.13;9.38;;;;;;;10.59;100.00;98498.03;5078560;28;20104;-81
2023/10/27 07:02:15;;;;;;;16.02;9.30;;;;;;;10.81;100.00;98507.22;5061035;28;20136;-80
2023/10/27 07:04:44;;;;;;;20.60;8.85;;;;;;;10.71;100.00;98503.44;5067424;28;20475;-81
2023/10/27 07:07:10;;;;;;;18.67;9.45;;;;;;;10.58;100.00;98504.28;5079547;28;20049;-81
2023/10/27 07:09:38;;;;;;;16.65;9.07;;;;;;;10.62;100.00;98511.50;5079125;28;20582;-81
2023/10/27 07:12:05;;;;;;;19.83;9.63;;;;;;;10.83;100.00;98520.09;5076726;28;20044;-80
2023/10/27 07:14:32;;;;;;;20.48;9.93;;;;;;;10.78;100.00;98512.84;5079389;28;20049;-81
2023/10/27 07:17:00;;;;;;;20.60;8.80;;;;;;;10.78;100.00;98510.25;5079034;28;20071;-79
2023/10/27 07:19:27;;;;;;;22.27;9.48;;;;;;;10.91;100.00;98515.38;5072913;28;20063;-80
2023/10/27 07:21:55;;;;;;;20.33;9.18;;;;;;;10.81;100.00;98525.53;5079918;28;20044;-80
2023/10/27 07:24:21;;;;;;;13.65;8.32;;;;;;;10.86;100.00;98525.69;5077827;28;20111;-80
2023/10/27 07:26:48;;;;;;;16.65;8.52;;;;;;;10.95;100.00;98534.88;5071309;28;20049;-80
2023/10/27 07:29:15;;;;;;;13.88;8.65;;;;;;;11.03;100.00;98525.19;5078735;28;20056;-81
2023/10/27 07:31:42;;;;;;;17.15;8.02;;;;;;;11.13;100.00;98528.16;5079147;28;20110;-81
2023/10/27 07:34:08;;;;;;;16.13;9.13;;;;;;;11.15;100.00;98524.31;5078603;28;20220;-81
2023/10/27 07:36:35;;;;;;;14.60;8.55;;;;;;;11.19;100.00;98525.50;5077933;28;20103;-80
2023/10/27 07:39:03;;;;;;;16.90;8.75;;;;;;;11.21;100.00;98522.69;5078894;28;20044;-80
2023/10/27 07:41:32;;;;;;;14.45;9.00;;;;;;;11.21;100.00;98528.72;5060797;28;20045;-81
2023/10/27 07:43:59;;;;;;;14.88;8.70;;;;;;;11.29;100.00;98530.28;5059261;28;20578;-81
2023/10/27 07:46:34;;;;;;;16.00;8.35;;;;;;;11.30;100.00;98522.22;5068811;28;20136;-81
2023/10/27 07:49:00;;;;;;;13.07;8.20;;;;;;;11.34;100.00;98533.06;5060136;28;20462;-81
2023/10/27 07:51:32;;;;;;;11.63;7.00;;;;;;;11.36;100.00;98527.59;5060406;28;20045;-83
2023/10/27 07:53:59;;;;;;;10.07;5.28;;;;;;;11.37;100.00;98522.16;5068017;28;20045;-82
2023/10/27 07:56:27;;;;;;;8.50;5.10;;;;;;;11.45;100.00;98529.75;5071262;28;20392;-82
2023/10/27 07:58:54;;;;;;;8.05;5.38;;;;;;;11.36;100.00;98536.25;5067043;28;20087;-81
2023/10/27 08:01:21;;;;;;;6.80;4.30;;;;;;;11.42;100.00;98532.78;5072141;28;20131;-82
2023/10/27 08:03:55;;;;;;;6.75;4.25;;;;;;;11.44;100.00;98530.75;5076901;28;20107;-81
2023/10/27 08:09:09;;;;;;;6.53;4.57;;;;;;;11.51;100.00;98533.34;5119811;22;20053;-81
2023/10/27 08:11:38;;;;;;;9.13;5.00;;;;;;;11.48;100.00;98536.38;5056211;28;20087;-80
2023/10/27 08:14:11;;;;;;;7.22;4.45;;;;;;;11.52;100.00;98546.22;5057228;28;20526;-81
2023/10/27 08:16:37;;;;;;;;;;;;;;;11.59;100.00;98538.31;5057493;28;20106;-82
2023/10/27 08:19:18;;;;;;;5.68;4.53;;;;;;;11.39;100.00;98535.84;5054490;28;19932;-83
2023/10/27 08:21:46;;;;;;;7.38;4.63;;;;;;;11.43;100.00;98539.63;5073772;23;20045;-79
2023/10/27 08:24:13;;;;;;;5.78;4.55;;;;;;;11.48;100.00;98557.34;5060097;28;20060;-80
2023/10/27 08:26:41;;;;;;;7.78;4.47;;;;;;;11.50;100.00;98543.00;5055336;28;20419;-80
2023/10/27 08:29:08;;;;;;;8.27;4.68;;;;;;;11.49;100.00;98556.31;5056095;28;20474;-79
2023/10/27 08:31:34;;;;;;;9.10;4.80;;;;;;;11.55;100.00;98551.03;5066894;28;20135;-79
2023/10/27 08:34:02;;;;;;;5.45;4.28;;;;;;;11.55;100.00;98561.50;5075684;28;20044;-80
2023/10/27 08:36:29;;;;;;;8.55;3.80;;;;;;;11.50;100.00;98566.59;5075068;28;20066;-80
2023/10/27 08:38:56;;;;;;;6.40;4.13;;;;;;;11.58;100.00;98566.34;5074895;28;20198;-79
2023/10/27 08:41:25;;;;;;;6.15;4.22;;;;;;;11.61;100.00;98570.34;5073062;28;20084;-79
2023/10/27 08:43:54;;;;;;;8.50;5.05;;;;;;;11.61;100.00;98565.09;5075350;28;20044;-79
2023/10/27 08:46:21;;;;;;;6.97;3.95;;;;;;;11.68;100.00;98565.06;5073468;28;20125;-79
2023/10/27 08:48:48;;;;;;;6.75;3.90;;;;;;;11.70;100.00;98569.06;5071689;28;20123;-79
2023/10/27 08:51:14;;;;;;;5.55;3.78;;;;;;;11.79;100.00;98567.03;5068313;28;20136;-79
2023/10/27 08:53:41;;;;;;;7.03;4.10;;;;;;;11.83;100.00;98570.78;5068779;28;20499;-80
2023/10/27 08:56:12;;;;;;;6.00;3.95;;;;;;;11.84;100.00;98564.53;5076229;28;20068;-80
2023/10/27 08:58:39;;;;;;;5.28;3.60;;;;;;;11.92;100.00;98572.13;5076701;28;20090;-80
2023/10/27 09:01:07;;;;;;;6.93;4.13;;;;;;;12.03;100.00;98570.63;5071222;28;20075;-79
2023/10/27 09:03:33;;;;;;;6.78;3.90;;;;;;;12.11;100.00;98576.41;5075095;28;20056;-81
2023/10/27 09:06:00;;;;;;;7.65;3.80;;;;;;;12.03;100.00;98573.25;5075208;28;20072;-81
2023/10/27 09:08:27;;;;;;;6.75;4.18;;;;;;;11.99;100.00;98569.47;5075654;28;20562;-81
2023/10/27 09:10:55;;;;;;;5.35;3.45;;;;;;;12.03;100.00;98568.81;5075317;28;20048;-81
2023/10/27 09:13:22;;;;;;;4.05;3.25;;;;;;;12.04;100.00;98565.19;5070941;28;20052;-79
2023/10/27 09:15:51;;;;;;;4.35;3.20;;;;;;;12.11;100.00;98573.00;5068223;28;20062;-80
2023/10/27 09:18:33;;;;;;;5.40;3.25;;;;;;;11.93;100.00;98577.16;5064388;28;20461;-80
2023/10/27 09:21:00;;;;;;;7.90;3.50;;;;;;;11.94;100.00;98570.09;5068082;28;20152;-79
2023/10/27 09:23:43;;;;;;;4.97;3.70;;;;;;;11.97;100.00;98580.16;5063006;28;20053;-80
2023/10/27 09:26:09;;;;;;;;;;;;;;;11.93;100.00;98584.22;5072255;28;20104;-80
2023/10/27 09:28:36;;;;;;;5.60;3.47;;;;;;;12.00;100.00;98584.19;5067367;28;19921;-80
2023/10/27 09:31:03;;;;;;;7.97;4.10;;;;;;;11.99;100.00;98587.81;5072384;28;20041;-79
2023/10/27 09:33:31;;;;;;;6.47;3.78;;;;;;;12.12;100.00;98580.66;5073153;28;20057;-79
2023/10/27 09:36:02;;;;;;;4.78;3.75;;;;;;;12.06;100.00;98576.25;5074316;28;20127;-79
2023/10/27 09:38:29;;;;;;;5.70;3.92;;;;;;;12.19;100.00;98588.44;5072882;28;20057;-79
2023/10/27 09:40:58;;;;;;;6.20;3.72;;;;;;;12.14;100.00;98577.81;5068248;28;20084;-79
2023/10/27 09:43:26;;;;;;;5.47;4.07;;;;;;;12.25;100.00;98582.34;5064148;28;20107;-79
2023/10/27 09:45:54;;;;;;;5.50;3.92;;;;;;;12.40;100.00;98579.34;5069403;28;20106;-79
2023/10/27 09:48:25;;;;;;;5.72;3.80;;;;;;;12.55;100.00;98580.59;5069684;28;20616;-80
2023/10/27 09:51:00;;;;;;;4.80;3.92;;;;;;;12.65;100.00;98582.72;5070832;28;20047;-79
2023/10/27 09:53:28;;;;;;;5.03;3.83;;;;;;;12.69;100.00;98583.91;5074029;28;20056;-80
2023/10/27 09:55:58;;;;;;;4.63;3.90;;;;;;;12.79;100.00;98592.03;5075584;28;20044;-81
2023/10/27 09:58:27;;;;;;;6.10;4.40;;;;;;;12.92;100.00;98594.50;5073077;28;20109;-82
2023/10/27 10:00:55;;;;;;;7.30;4.32;;;;;;;13.04;100.00;98599.81;5073697;28;20048;-80
2023/10/27 10:03:24;;;;;;;10.25;5.72;;;;;;;13.10;100.00;98600.78;5067963;28;20527;-80
2023/10/27 10:06:17;;;;;;;6.47;4.82;;;;;;;13.13;100.00;98610.84;5067358;28;20079;-81
2023/10/27 10:09:09;;;;;;;8.05;5.22;;;;;;;13.22;100.00;98607.72;5070113;28;20052;-80
2023/10/27 10:11:37;;;;;;;8.30;4.85;;;;;;;13.23;100.00;98605.91;5069973;28;20069;-80
2023/10/27 10:14:04;;;;;;;8.68;5.15;;;;;;;13.36;100.00;98610.94;5076191;28;20058;-81
2023/10/27 10:16:40;;;;;;;8.02;5.88;;;;;;;13.38;100.00;98605.47;5079843;28;20051;-81
2023/10/27 10:19:07;;;;;;;8.85;5.35;;;;;;;13.34;100.00;98607.75;5087575;28;20025;-81
2023/10/27 10:21:38;;;;;;;10.35;5.90;;;;;;;13.25;100.00;98603.81;5090771;28;20040;-80
2023/10/27 10:24:08;;;;;;;9.48;5.60;;;;;;;13.39;100.00;98613.13;5087481;28;20048;-83
2023/10/27 10:27:12;;;;;;;11.77;5.95;;;;;;;13.21;100.00;98600.06;5087950;28;20160;-82
2023/10/27 10:29:40;;;;;;;11.45;7.00;;;;;;;13.02;100.00;98611.56;5073286;28;20060;-81
2023/10/27 10:32:36;;;;;;;9.77;6.43;;;;;;;12.94;100.00;98612.66;5067606;28;20036;-80
2023/10/27 10:35:26;;;;;;;9.05;6.60;;;;;;;13.03;100.00;98621.84;5070323;28;20114;-80
2023/10/27 10:37:54;;;;;;;11.20;7.07;;;;;;;13.26;100.00;98618.56;5070998;28;20049;-80
2023/10/27 10:40:26;;;;;;;10.15;6.30;;;;;;;13.21;100.00;98626.31;5067949;28;20060;-80
2023/10/27 10:43:23;;;;;;;9.48;6.65;;;;;;;13.28;100.00;98622.56;5068480;28;20138;-80
2023/10/27 10:45:51;;;;;;;10.80;6.43;;;;;;;13.07;100.00;98622.22;5066582;28;20048;-79
2023/10/27 10:48:18;;;;;;;13.20;7.43;;;;;;;13.09;100.00;98609.66;5073706;28;20106;-79
2023/10/27 10:50:45;;;;;;;14.02;8.00;;;;;;;13.27;100.00;98618.34;5071687;28;20084;-80
2023/10/27 10:53:17;;;;;;;13.10;8.05;;;;;;;13.34;100.00;98614.81;5069612;28;20048;-80
2023/10/27 10:55:45;;;;;;;15.70;7.22;;;;;;;13.25;100.00;98623.00;5070402;28;20087;-80
2023/10/27 10:58:21;;;;;;;17.98;7.30;;;;;;;13.33;100.00;98621.91;5068408;28;20052;-80
2023/10/27 11:00:48;;;;;;;12.27;7.43;;;;;;;13.42;100.00;98627.66;5069965;28;20513;-80
2023/10/27 11:03:15;;;;;;;8.95;6.82;;;;;;;13.46;100.00;98613.84;5068122;28;20127;-80
2023/10/27 11:05:44;;;;;;;15.65;7.00;;;;;;;13.48;100.00;98621.50;5067317;28;20044;-81
2023/10/27 11:08:10;;;;;;;13.18;8.27;;;;;;;13.58;100.00;98617.31;5065714;28;20041;-80
2023/10/27 11:10:38;;;;;;;13.68;6.32;;;;;;;13.49;100.00;98605.53;5071726;28;20136;-79
2023/10/27 11:13:06;;;;;;;12.13;6.00;;;;;;;13.59;100.00;98605.78;5069989;28;20052;-80
2023/10/27 11:15:44;;;;;;;12.13;6.70;;;;;;;13.69;100.00;98596.56;5071907;28;20044;-80
2023/10/27 11:18:13;;;;;;;15.55;6.20;;;;;;;13.71;100.00;98607.63;5072660;28;20076;-79
2023/10/27 11:20:41;;;;;;;11.07;6.38;;;;;;;13.86;100.00;98600.09;5070438;28;20048;-80
2023/10/27 11:23:09;;;;;;;12.20;6.20;;;;;;;13.87;100.00;98594.63;5071025;28;20036;-81
2023/10/27 11:25:35;;;;;;;9.30;5.80;;;;;;;13.99;100.00;98599.09;5073463;28;20044;-81
2023/10/27 11:28:23;;;;;;;14.25;5.97;;;;;;;14.16;100.00;98607.94;5066398;28;20048;-80
2023/10/27 11:31:06;;;;;;;9.50;5.40;;;;;;;14.29;100.00;98600.59;5064501;28;20178;-79
2023/10/27 11:33:33;;;;;;;9.88;5.18;;;;;;;14.27;100.00;98597.38;5066981;28;20130;-79
2023/10/27 11:36:01;;;;;;;8.70;5.55;;;;;;;14.22;100.00;98593.84;5066269;28;20076;-78